sensor_id;sensor_type;location;lat;lon;timestamp;P1;durP1;ratioP1;P2;durP2;ratioP2
67904;SDS011;54709;43.614;1.576;2022-11-20T00:00:49;4.40;;;1.60;;
67904;SDS011;54709;43.614;1.576;2022-11-20T00:03:14;3.95;;;1.80;;
67904;SDS011;54709;43.614;1.576;2022-11-20T00:05:40;4.80;;;1.85;;
67904;SDS011;54709;43.614;1.576;2022-11-20T00:08:05;3.88;;;1.85;;
67904;SDS011;54709;43.614;1.576;2022-11-20T00:10:31;2.45;;;1.65;;
67904;SDS011;54709;43.614;1.576;2022-11-20T00:12:59;3.47;;;1.90;;
67904;SDS011;54709;43.614;1.576;2022-11-20T00:15:25;1.95;;;1.70;;
67904;SDS011;54709;43.614;1.576;2022-11-20T00:17:50;2.42;;;1.75;;
67904;SDS011;54709;43.614;1.576;2022-11-20T00:20:15;2.92;;;1.77;;
67904;SDS011;54709;43.614;1.576;2022-11-20T00:22:41;9.65;;;2.03;;
67904;SDS011;54709;43.614;1.576;2022-11-20T00:25:06;3.97;;;1.88;;
67904;SDS011;54709;43.614;1.576;2022-11-20T00:27:32;5.10;;;1.90;;
67904;SDS011;54709;43.614;1.576;2022-11-20T00:29:57;4.25;;;1.85;;
67904;SDS011;54709;43.614;1.576;2022-11-20T00:32:23;3.70;;;2.15;;
67904;SDS011;54709;43.614;1.576;2022-11-20T00:34:48;3.80;;;2.00;;
67904;SDS011;54709;43.614;1.576;2022-11-20T00:37:13;3.53;;;2.38;;
67904;SDS011;54709;43.614;1.576;2022-11-20T00:39:39;2.88;;;2.00;;
67904;SDS011;54709;43.614;1.576;2022-11-20T00:42:04;3.83;;;1.95;;
67904;SDS011;54709;43.614;1.576;2022-11-20T00:44:30;6.22;;;2.28;;
67904;SDS011;54709;43.614;1.576;2022-11-20T00:46:55;3.55;;;2.22;;
67904;SDS011;54709;43.614;1.576;2022-11-20T00:49:20;5.75;;;2.20;;
67904;SDS011;54709;43.614;1.576;2022-11-20T00:51:46;2.53;;;1.90;;
67904;SDS011;54709;43.614;1.576;2022-11-20T00:54:11;5.15;;;2.10;;
67904;SDS011;54709;43.614;1.576;2022-11-20T00:56:36;3.90;;;2.00;;
67904;SDS011;54709;43.614;1.576;2022-11-20T00:59:02;3.83;;;2.03;;
67904;SDS011;54709;43.614;1.576;2022-11-20T01:01:27;4.50;;;2.25;;
67904;SDS011;54709;43.614;1.576;2022-11-20T01:03:55;4.13;;;2.20;;
67904;SDS011;54709;43.614;1.576;2022-11-20T01:06:28;3.72;;;2.60;;
67904;SDS011;54709;43.614;1.576;2022-11-20T01:08:55;6.30;;;3.30;;
67904;SDS011;54709;43.614;1.576;2022-11-20T01:11:23;4.25;;;3.50;;
67904;SDS011;54709;43.614;1.576;2022-11-20T01:14:09;8.50;;;3.60;;
67904;SDS011;54709;43.614;1.576;2022-11-20T01:16:38;5.05;;;3.05;;
67904;SDS011;54709;43.614;1.576;2022-11-20T01:19:07;5.05;;;3.17;;
67904;SDS011;54709;43.614;1.576;2022-11-20T01:21:36;4.75;;;2.95;;
67904;SDS011;54709;43.614;1.576;2022-11-20T01:24:03;5.85;;;2.70;;
67904;SDS011;54709;43.614;1.576;2022-11-20T01:26:32;3.65;;;2.53;;
67904;SDS011;54709;43.614;1.576;2022-11-20T01:28:59;4.85;;;2.40;;
67904;SDS011;54709;43.614;1.576;2022-11-20T01:31:27;6.15;;;2.30;;
67904;SDS011;54709;43.614;1.576;2022-11-20T01:33:55;4.80;;;2.40;;
67904;SDS011;54709;43.614;1.576;2022-11-20T01:36:24;4.05;;;2.42;;
67904;SDS011;54709;43.614;1.576;2022-11-20T01:38:52;5.75;;;2.50;;
67904;SDS011;54709;43.614;1.576;2022-11-20T01:41:23;3.30;;;2.05;;
67904;SDS011;54709;43.614;1.576;2022-11-20T01:44:08;2.60;;;2.20;;
67904;SDS011;54709;43.614;1.576;2022-11-20T01:46:36;5.60;;;2.22;;
67904;SDS011;54709;43.614;1.576;2022-11-20T01:49:02;3.33;;;2.70;;
67904;SDS011;54709;43.614;1.576;2022-11-20T01:53:58;4.85;;;2.35;;
67904;SDS011;54709;43.614;1.576;2022-11-20T01:56:27;3.95;;;2.75;;
67904;SDS011;54709;43.614;1.576;2022-11-20T01:58:54;5.85;;;2.90;;
67904;SDS011;54709;43.614;1.576;2022-11-20T02:01:22;5.10;;;2.53;;
67904;SDS011;54709;43.614;1.576;2022-11-20T02:03:47;6.18;;;2.70;;
67904;SDS011;54709;43.614;1.576;2022-11-20T02:06:18;4.75;;;2.85;;
67904;SDS011;54709;43.614;1.576;2022-11-20T02:08:46;6.38;;;2.88;;
67904;SDS011;54709;43.614;1.576;2022-11-20T02:11:12;6.10;;;3.10;;
67904;SDS011;54709;43.614;1.576;2022-11-20T02:13:37;4.07;;;2.42;;
67904;SDS011;54709;43.614;1.576;2022-11-20T02:18:41;5.05;;;2.70;;
67904;SDS011;54709;43.614;1.576;2022-11-20T02:21:43;3.95;;;2.40;;
67904;SDS011;54709;43.614;1.576;2022-11-20T02:26:54;4.57;;;2.60;;
67904;SDS011;54709;43.614;1.576;2022-11-20T02:29:24;8.07;;;2.58;;
67904;SDS011;54709;43.614;1.576;2022-11-20T02:31:51;5.65;;;2.65;;
67904;SDS011;54709;43.614;1.576;2022-11-20T02:34:19;4.28;;;2.70;;
67904;SDS011;54709;43.614;1.576;2022-11-20T02:36:44;3.60;;;2.33;;
67904;SDS011;54709;43.614;1.576;2022-11-20T02:39:11;4.40;;;2.35;;
67904;SDS011;54709;43.614;1.576;2022-11-20T02:41:37;5.30;;;2.38;;
67904;SDS011;54709;43.614;1.576;2022-11-20T02:44:03;3.30;;;2.50;;
67904;SDS011;54709;43.614;1.576;2022-11-20T02:46:30;4.25;;;2.33;;
67904;SDS011;54709;43.614;1.576;2022-11-20T02:48:56;2.20;;;2.00;;
67904;SDS011;54709;43.614;1.576;2022-11-20T02:51:21;3.97;;;1.80;;
67904;SDS011;54709;43.614;1.576;2022-11-20T02:53:46;4.53;;;2.30;;
67904;SDS011;54709;43.614;1.576;2022-11-20T02:56:12;2.53;;;2.00;;
67904;SDS011;54709;43.614;1.576;2022-11-20T02:58:37;7.07;;;1.88;;
67904;SDS011;54709;43.614;1.576;2022-11-20T03:01:03;3.45;;;1.92;;
67904;SDS011;54709;43.614;1.576;2022-11-20T03:03:28;5.32;;;1.90;;
67904;SDS011;54709;43.614;1.576;2022-11-20T03:05:53;4.35;;;2.10;;
67904;SDS011;54709;43.614;1.576;2022-11-20T03:08:19;3.65;;;2.03;;
67904;SDS011;54709;43.614;1.576;2022-11-20T03:10:44;4.25;;;1.75;;
67904;SDS011;54709;43.614;1.576;2022-11-20T03:13:09;3.40;;;1.70;;
67904;SDS011;54709;43.614;1.576;2022-11-20T03:15:35;3.90;;;2.10;;
67904;SDS011;54709;43.614;1.576;2022-11-20T03:18:02;3.20;;;1.85;;
67904;SDS011;54709;43.614;1.576;2022-11-20T03:20:27;3.13;;;2.28;;
67904;SDS011;54709;43.614;1.576;2022-11-20T03:22:53;3.10;;;2.17;;
67904;SDS011;54709;43.614;1.576;2022-11-20T03:25:19;3.50;;;2.35;;
67904;SDS011;54709;43.614;1.576;2022-11-20T03:27:45;4.45;;;2.40;;
67904;SDS011;54709;43.614;1.576;2022-11-20T03:30:10;7.43;;;2.85;;
67904;SDS011;54709;43.614;1.576;2022-11-20T03:32:36;2.75;;;2.40;;
67904;SDS011;54709;43.614;1.576;2022-11-20T03:35:02;4.68;;;2.28;;
67904;SDS011;54709;43.614;1.576;2022-11-20T03:37:27;3.40;;;2.28;;
67904;SDS011;54709;43.614;1.576;2022-11-20T03:39:52;5.88;;;2.45;;
67904;SDS011;54709;43.614;1.576;2022-11-20T03:42:18;2.42;;;2.00;;
67904;SDS011;54709;43.614;1.576;2022-11-20T03:45:02;2.80;;;1.77;;
67904;SDS011;54709;43.614;1.576;2022-11-20T03:47:27;7.15;;;1.77;;
67904;SDS011;54709;43.614;1.576;2022-11-20T03:49:53;1.88;;;1.70;;
67904;SDS011;54709;43.614;1.576;2022-11-20T03:52:18;2.33;;;1.75;;
67904;SDS011;54709;43.614;1.576;2022-11-20T03:54:44;2.10;;;1.80;;
67904;SDS011;54709;43.614;1.576;2022-11-20T03:57:09;2.20;;;1.63;;
67904;SDS011;54709;43.614;1.576;2022-11-20T03:59:34;1.90;;;1.60;;
67904;SDS011;54709;43.614;1.576;2022-11-20T04:02:00;2.17;;;1.80;;
67904;SDS011;54709;43.614;1.576;2022-11-20T04:04:25;5.40;;;1.88;;
67904;SDS011;54709;43.614;1.576;2022-11-20T04:06:51;1.83;;;1.70;;
67904;SDS011;54709;43.614;1.576;2022-11-20T04:09:16;2.47;;;1.70;;
67904;SDS011;54709;43.614;1.576;2022-11-20T04:11:41;5.57;;;1.65;;
67904;SDS011;54709;43.614;1.576;2022-11-20T04:14:12;4.00;;;1.80;;
67904;SDS011;54709;43.614;1.576;2022-11-20T04:16:39;3.75;;;1.70;;
67904;SDS011;54709;43.614;1.576;2022-11-20T04:19:05;3.78;;;1.70;;
67904;SDS011;54709;43.614;1.576;2022-11-20T04:21:34;2.85;;;1.73;;
67904;SDS011;54709;43.614;1.576;2022-11-20T04:23:59;2.20;;;2.00;;
67904;SDS011;54709;43.614;1.576;2022-11-20T04:26:25;3.17;;;1.88;;
67904;SDS011;54709;43.614;1.576;2022-11-20T04:28:52;2.20;;;1.65;;
67904;SDS011;54709;43.614;1.576;2022-11-20T04:31:18;2.03;;;1.63;;
67904;SDS011;54709;43.614;1.576;2022-11-20T04:33:48;1.98;;;1.60;;
67904;SDS011;54709;43.614;1.576;2022-11-20T04:36:17;3.55;;;1.40;;
67904;SDS011;54709;43.614;1.576;2022-11-20T04:38:44;2.00;;;1.67;;
67904;SDS011;54709;43.614;1.576;2022-11-20T04:41:12;2.05;;;1.80;;
67904;SDS011;54709;43.614;1.576;2022-11-20T04:43:40;3.08;;;1.70;;
67904;SDS011;54709;43.614;1.576;2022-11-20T04:46:05;2.17;;;1.80;;
67904;SDS011;54709;43.614;1.576;2022-11-20T04:48:30;2.00;;;1.70;;
67904;SDS011;54709;43.614;1.576;2022-11-20T04:50:56;3.03;;;1.75;;
67904;SDS011;54709;43.614;1.576;2022-11-20T04:53:22;3.45;;;2.03;;
67904;SDS011;54709;43.614;1.576;2022-11-20T04:55:48;4.43;;;2.17;;
67904;SDS011;54709;43.614;1.576;2022-11-20T04:58:13;2.10;;;1.90;;
67904;SDS011;54709;43.614;1.576;2022-11-20T05:00:40;4.18;;;2.00;;
67904;SDS011;54709;43.614;1.576;2022-11-20T05:03:05;2.78;;;2.10;;
67904;SDS011;54709;43.614;1.576;2022-11-20T05:05:31;7.30;;;2.17;;
67904;SDS011;54709;43.614;1.576;2022-11-20T05:07:58;6.03;;;2.40;;
67904;SDS011;54709;43.614;1.576;2022-11-20T05:10:24;6.68;;;3.75;;
67904;SDS011;54709;43.614;1.576;2022-11-20T05:12:50;12.15;;;4.95;;
67904;SDS011;54709;43.614;1.576;2022-11-20T05:15:16;20.45;;;5.47;;
67904;SDS011;54709;43.614;1.576;2022-11-20T05:17:46;26.00;;;5.90;;
67904;SDS011;54709;43.614;1.576;2022-11-20T05:20:14;48.45;;;6.18;;
67904;SDS011;54709;43.614;1.576;2022-11-20T05:22:40;30.48;;;6.60;;
67904;SDS011;54709;43.614;1.576;2022-11-20T05:25:05;22.13;;;6.00;;
67904;SDS011;54709;43.614;1.576;2022-11-20T05:27:31;23.75;;;6.45;;
67904;SDS011;54709;43.614;1.576;2022-11-20T05:29:56;13.80;;;5.45;;
67904;SDS011;54709;43.614;1.576;2022-11-20T05:32:21;61.50;;;5.68;;
67904;SDS011;54709;43.614;1.576;2022-11-20T05:34:50;26.90;;;5.43;;
67904;SDS011;54709;43.614;1.576;2022-11-20T05:37:16;44.10;;;5.28;;
67904;SDS011;54709;43.614;1.576;2022-11-20T05:39:41;38.95;;;5.28;;
67904;SDS011;54709;43.614;1.576;2022-11-20T05:42:06;77.72;;;5.05;;
67904;SDS011;54709;43.614;1.576;2022-11-20T05:44:50;58.83;;;4.80;;
67904;SDS011;54709;43.614;1.576;2022-11-20T05:47:16;41.80;;;4.35;;
67904;SDS011;54709;43.614;1.576;2022-11-20T05:49:41;34.17;;;4.10;;
67904;SDS011;54709;43.614;1.576;2022-11-20T05:52:07;28.30;;;5.07;;
67904;SDS011;54709;43.614;1.576;2022-11-20T05:54:32;30.77;;;4.30;;
67904;SDS011;54709;43.614;1.576;2022-11-20T05:56:58;21.42;;;4.00;;
67904;SDS011;54709;43.614;1.576;2022-11-20T05:59:23;47.70;;;4.63;;
67904;SDS011;54709;43.614;1.576;2022-11-20T06:01:49;26.60;;;4.18;;
67904;SDS011;54709;43.614;1.576;2022-11-20T06:04:14;31.27;;;4.15;;
67904;SDS011;54709;43.614;1.576;2022-11-20T06:06:39;35.80;;;4.03;;
67904;SDS011;54709;43.614;1.576;2022-11-20T06:09:05;17.67;;;4.20;;
67904;SDS011;54709;43.614;1.576;2022-11-20T06:11:30;35.35;;;4.40;;
67904;SDS011;54709;43.614;1.576;2022-11-20T06:13:56;17.05;;;4.32;;
67904;SDS011;54709;43.614;1.576;2022-11-20T06:16:21;24.65;;;4.22;;
67904;SDS011;54709;43.614;1.576;2022-11-20T06:18:47;32.97;;;4.47;;
67904;SDS011;54709;43.614;1.576;2022-11-20T06:21:14;41.72;;;5.05;;
67904;SDS011;54709;43.614;1.576;2022-11-20T06:23:40;71.03;;;4.90;;
67904;SDS011;54709;43.614;1.576;2022-11-20T06:26:07;20.65;;;4.35;;
67904;SDS011;54709;43.614;1.576;2022-11-20T06:28:37;18.27;;;4.82;;
67904;SDS011;54709;43.614;1.576;2022-11-20T06:31:02;16.55;;;5.07;;
67904;SDS011;54709;43.614;1.576;2022-11-20T06:33:28;12.57;;;4.57;;
67904;SDS011;54709;43.614;1.576;2022-11-20T06:35:57;44.80;;;4.22;;
67904;SDS011;54709;43.614;1.576;2022-11-20T06:38:27;51.55;;;4.15;;
67904;SDS011;54709;43.614;1.576;2022-11-20T06:40:53;51.92;;;4.35;;
67904;SDS011;54709;43.614;1.576;2022-11-20T06:43:19;36.80;;;4.13;;
67904;SDS011;54709;43.614;1.576;2022-11-20T06:45:45;27.83;;;4.22;;
67904;SDS011;54709;43.614;1.576;2022-11-20T06:48:10;45.00;;;4.18;;
67904;SDS011;54709;43.614;1.576;2022-11-20T06:50:36;24.02;;;3.78;;
67904;SDS011;54709;43.614;1.576;2022-11-20T06:53:02;9.18;;;3.28;;
67904;SDS011;54709;43.614;1.576;2022-11-20T06:55:29;24.52;;;3.92;;
67904;SDS011;54709;43.614;1.576;2022-11-20T06:57:55;26.85;;;3.47;;
67904;SDS011;54709;43.614;1.576;2022-11-20T07:00:20;17.17;;;3.75;;
67904;SDS011;54709;43.614;1.576;2022-11-20T07:02:46;27.13;;;3.60;;
67904;SDS011;54709;43.614;1.576;2022-11-20T07:05:11;37.40;;;3.83;;
67904;SDS011;54709;43.614;1.576;2022-11-20T07:07:37;15.00;;;3.78;;
67904;SDS011;54709;43.614;1.576;2022-11-20T07:10:02;28.40;;;3.97;;
67904;SDS011;54709;43.614;1.576;2022-11-20T07:12:28;17.33;;;3.72;;
67904;SDS011;54709;43.614;1.576;2022-11-20T07:14:53;30.67;;;3.75;;
67904;SDS011;54709;43.614;1.576;2022-11-20T07:17:19;14.57;;;3.70;;
67904;SDS011;54709;43.614;1.576;2022-11-20T07:19:44;21.15;;;3.90;;
67904;SDS011;54709;43.614;1.576;2022-11-20T07:22:10;15.60;;;3.75;;
67904;SDS011;54709;43.614;1.576;2022-11-20T07:24:36;13.90;;;4.18;;
67904;SDS011;54709;43.614;1.576;2022-11-20T07:27:01;25.17;;;3.80;;
67904;SDS011;54709;43.614;1.576;2022-11-20T07:29:26;14.25;;;4.50;;
67904;SDS011;54709;43.614;1.576;2022-11-20T07:31:52;17.30;;;3.72;;
67904;SDS011;54709;43.614;1.576;2022-11-20T07:34:17;25.23;;;4.00;;
67904;SDS011;54709;43.614;1.576;2022-11-20T07:36:43;33.53;;;3.33;;
67904;SDS011;54709;43.614;1.576;2022-11-20T07:39:08;39.65;;;4.25;;
67904;SDS011;54709;43.614;1.576;2022-11-20T07:41:34;22.90;;;4.18;;
67904;SDS011;54709;43.614;1.576;2022-11-20T07:44:00;41.92;;;4.47;;
67904;SDS011;54709;43.614;1.576;2022-11-20T07:46:25;28.73;;;3.67;;
67904;SDS011;54709;43.614;1.576;2022-11-20T07:48:51;77.95;;;5.35;;
67904;SDS011;54709;43.614;1.576;2022-11-20T07:51:17;39.78;;;3.78;;
67904;SDS011;54709;43.614;1.576;2022-11-20T07:53:42;136.35;;;5.32;;
67904;SDS011;54709;43.614;1.576;2022-11-20T07:56:07;145.25;;;5.55;;
67904;SDS011;54709;43.614;1.576;2022-11-20T07:58:33;107.65;;;4.75;;
67904;SDS011;54709;43.614;1.576;2022-11-20T08:01:06;113.10;;;5.82;;
67904;SDS011;54709;43.614;1.576;2022-11-20T08:03:32;30.63;;;5.13;;
67904;SDS011;54709;43.614;1.576;2022-11-20T08:06:02;10.73;;;4.30;;
67904;SDS011;54709;43.614;1.576;2022-11-20T08:08:28;18.42;;;4.28;;
67904;SDS011;54709;43.614;1.576;2022-11-20T08:10:54;11.80;;;4.20;;
67904;SDS011;54709;43.614;1.576;2022-11-20T08:13:39;84.50;;;5.25;;
67904;SDS011;54709;43.614;1.576;2022-11-20T08:16:23;156.93;;;6.18;;
67904;SDS011;54709;43.614;1.576;2022-11-20T08:18:48;152.82;;;6.72;;
67904;SDS011;54709;43.614;1.576;2022-11-20T08:21:14;44.13;;;5.30;;
67904;SDS011;54709;43.614;1.576;2022-11-20T08:23:39;15.93;;;6.80;;
67904;SDS011;54709;43.614;1.576;2022-11-20T08:26:05;11.20;;;5.35;;
67904;SDS011;54709;43.614;1.576;2022-11-20T08:28:30;48.05;;;6.47;;
67904;SDS011;54709;43.614;1.576;2022-11-20T08:30:59;38.55;;;5.18;;
67904;SDS011;54709;43.614;1.576;2022-11-20T08:33:25;19.38;;;5.20;;
67904;SDS011;54709;43.614;1.576;2022-11-20T08:35:51;12.98;;;4.85;;
67904;SDS011;54709;43.614;1.576;2022-11-20T08:38:16;8.88;;;4.90;;
67904;SDS011;54709;43.614;1.576;2022-11-20T08:40:42;5.43;;;4.28;;
67904;SDS011;54709;43.614;1.576;2022-11-20T08:43:27;5.10;;;4.28;;
67904;SDS011;54709;43.614;1.576;2022-11-20T08:45:52;6.32;;;4.40;;
67904;SDS011;54709;43.614;1.576;2022-11-20T08:48:18;5.65;;;3.78;;
67904;SDS011;54709;43.614;1.576;2022-11-20T08:50:43;4.78;;;3.83;;
67904;SDS011;54709;43.614;1.576;2022-11-20T08:53:08;11.45;;;4.00;;
67904;SDS011;54709;43.614;1.576;2022-11-20T08:55:34;7.40;;;4.25;;
67904;SDS011;54709;43.614;1.576;2022-11-20T08:58:08;9.30;;;4.20;;
67904;SDS011;54709;43.614;1.576;2022-11-20T09:00:33;5.47;;;4.18;;
67904;SDS011;54709;43.614;1.576;2022-11-20T09:02:59;4.53;;;3.50;;
67904;SDS011;54709;43.614;1.576;2022-11-20T09:05:26;4.63;;;3.30;;
67904;SDS011;54709;43.614;1.576;2022-11-20T09:07:51;4.53;;;3.88;;
67904;SDS011;54709;43.614;1.576;2022-11-20T09:10:17;4.90;;;3.92;;
67904;SDS011;54709;43.614;1.576;2022-11-20T09:12:42;6.75;;;4.00;;
67904;SDS011;54709;43.614;1.576;2022-11-20T09:15:07;4.15;;;3.75;;
67904;SDS011;54709;43.614;1.576;2022-11-20T09:17:33;6.68;;;3.65;;
67904;SDS011;54709;43.614;1.576;2022-11-20T09:19:58;5.65;;;4.65;;
67904;SDS011;54709;43.614;1.576;2022-11-20T09:22:24;5.05;;;4.50;;
67904;SDS011;54709;43.614;1.576;2022-11-20T09:24:49;5.03;;;3.80;;
67904;SDS011;54709;43.614;1.576;2022-11-20T09:27:15;4.25;;;3.83;;
67904;SDS011;54709;43.614;1.576;2022-11-20T09:29:45;5.22;;;4.13;;
67904;SDS011;54709;43.614;1.576;2022-11-20T09:32:10;7.05;;;4.50;;
67904;SDS011;54709;43.614;1.576;2022-11-20T09:34:36;5.95;;;4.45;;
67904;SDS011;54709;43.614;1.576;2022-11-20T09:37:01;6.22;;;4.55;;
67904;SDS011;54709;43.614;1.576;2022-11-20T09:39:26;6.38;;;4.63;;
67904;SDS011;54709;43.614;1.576;2022-11-20T09:44:34;7.95;;;5.00;;
67904;SDS011;54709;43.614;1.576;2022-11-20T09:47:32;5.55;;;4.03;;
67904;SDS011;54709;43.614;1.576;2022-11-20T09:55:25;5.53;;;4.22;;
67904;SDS011;54709;43.614;1.576;2022-11-20T09:57:51;12.85;;;6.97;;
67904;SDS011;54709;43.614;1.576;2022-11-20T10:00:17;8.45;;;4.72;;
67904;SDS011;54709;43.614;1.576;2022-11-20T10:05:20;9.90;;;5.78;;
67904;SDS011;54709;43.614;1.576;2022-11-20T10:07:55;5.47;;;4.20;;
67904;SDS011;54709;43.614;1.576;2022-11-20T10:10:47;8.73;;;5.90;;
67904;SDS011;54709;43.614;1.576;2022-11-20T10:29:21;3.15;;;2.83;;
67904;SDS011;54709;43.614;1.576;2022-11-20T10:31:56;3.22;;;2.92;;
67904;SDS011;54709;43.614;1.576;2022-11-20T10:37:13;5.40;;;2.97;;
67904;SDS011;54709;43.614;1.576;2022-11-20T10:42:17;2.08;;;1.80;;
67904;SDS011;54709;43.614;1.576;2022-11-20T10:44:51;2.70;;;1.70;;
67904;SDS011;54709;43.614;1.576;2022-11-20T10:47:27;3.60;;;2.35;;
67904;SDS011;54709;43.614;1.576;2022-11-20T10:49:54;3.58;;;2.15;;
67904;SDS011;54709;43.614;1.576;2022-11-20T10:57:41;7.13;;;2.88;;
67904;SDS011;54709;43.614;1.576;2022-11-20T11:00:16;5.10;;;3.90;;
67904;SDS011;54709;43.614;1.576;2022-11-20T11:02:49;4.03;;;3.28;;
67904;SDS011;54709;43.614;1.576;2022-11-20T11:08:02;3.33;;;2.63;;
67904;SDS011;54709;43.614;1.576;2022-11-20T11:10:32;2.97;;;2.58;;
67904;SDS011;54709;43.614;1.576;2022-11-20T11:12:58;3.08;;;2.30;;
67904;SDS011;54709;43.614;1.576;2022-11-20T11:15:28;3.53;;;2.50;;
67904;SDS011;54709;43.614;1.576;2022-11-20T11:17:53;2.83;;;1.98;;
67904;SDS011;54709;43.614;1.576;2022-11-20T11:20:20;2.15;;;1.60;;
67904;SDS011;54709;43.614;1.576;2022-11-20T11:22:48;1.80;;;1.60;;
67904;SDS011;54709;43.614;1.576;2022-11-20T11:27:53;3.92;;;1.40;;
67904;SDS011;54709;43.614;1.576;2022-11-20T11:30:21;3.20;;;1.70;;
67904;SDS011;54709;43.614;1.576;2022-11-20T11:32:47;2.35;;;1.50;;
67904;SDS011;54709;43.614;1.576;2022-11-20T11:35:23;3.70;;;1.73;;
67904;SDS011;54709;43.614;1.576;2022-11-20T11:37:51;2.55;;;1.60;;
67904;SDS011;54709;43.614;1.576;2022-11-20T11:40:19;2.35;;;1.45;;
67904;SDS011;54709;43.614;1.576;2022-11-20T11:42:58;2.60;;;1.40;;
67904;SDS011;54709;43.614;1.576;2022-11-20T11:45:25;1.92;;;1.70;;
67904;SDS011;54709;43.614;1.576;2022-11-20T11:47:51;2.53;;;1.70;;
67904;SDS011;54709;43.614;1.576;2022-11-20T11:52:48;2.55;;;1.98;;
67904;SDS011;54709;43.614;1.576;2022-11-20T12:03:44;2.60;;;1.58;;
67904;SDS011;54709;43.614;1.576;2022-11-20T12:06:34;2.40;;;1.55;;
67904;SDS011;54709;43.614;1.576;2022-11-20T12:09:04;2.65;;;1.60;;
67904;SDS011;54709;43.614;1.576;2022-11-20T12:14:21;3.60;;;1.80;;
67904;SDS011;54709;43.614;1.576;2022-11-20T12:16:52;4.63;;;1.70;;
67904;SDS011;54709;43.614;1.576;2022-11-20T12:19:18;3.05;;;1.80;;
67904;SDS011;54709;43.614;1.576;2022-11-20T12:21:55;2.97;;;1.83;;
67904;SDS011;54709;43.614;1.576;2022-11-20T12:30:16;2.53;;;1.60;;
67904;SDS011;54709;43.614;1.576;2022-11-20T12:53:26;4.88;;;2.50;;
67904;SDS011;54709;43.614;1.576;2022-11-20T13:06:48;8.55;;;5.57;;
67904;SDS011;54709;43.614;1.576;2022-11-20T13:09:15;4.55;;;3.20;;
67904;SDS011;54709;43.614;1.576;2022-11-20T13:19:20;6.88;;;3.78;;
67904;SDS011;54709;43.614;1.576;2022-11-20T13:21:47;6.18;;;3.83;;
67904;SDS011;54709;43.614;1.576;2022-11-20T13:29:30;4.57;;;2.80;;
67904;SDS011;54709;43.614;1.576;2022-11-20T13:32:15;5.75;;;2.70;;
67904;SDS011;54709;43.614;1.576;2022-11-20T13:34:56;7.30;;;3.50;;
67904;SDS011;54709;43.614;1.576;2022-11-20T13:37:27;6.40;;;3.70;;
67904;SDS011;54709;43.614;1.576;2022-11-20T13:40:05;6.28;;;3.97;;
67904;SDS011;54709;43.614;1.576;2022-11-20T13:42:35;5.10;;;2.63;;
67904;SDS011;54709;43.614;1.576;2022-11-20T13:45:02;9.52;;;5.32;;
67904;SDS011;54709;43.614;1.576;2022-11-20T13:47:34;10.20;;;4.03;;
67904;SDS011;54709;43.614;1.576;2022-11-20T13:50:00;6.25;;;2.90;;
67904;SDS011;54709;43.614;1.576;2022-11-20T13:52:32;4.32;;;2.63;;
67904;SDS011;54709;43.614;1.576;2022-11-20T14:01:13;5.50;;;3.60;;
67904;SDS011;54709;43.614;1.576;2022-11-20T14:08:46;2.97;;;2.40;;
67904;SDS011;54709;43.614;1.576;2022-11-20T14:11:14;4.47;;;2.90;;
67904;SDS011;54709;43.614;1.576;2022-11-20T14:13:54;3.55;;;2.67;;
67904;SDS011;54709;43.614;1.576;2022-11-20T14:16:20;6.20;;;4.78;;
67904;SDS011;54709;43.614;1.576;2022-11-20T14:18:46;6.88;;;4.30;;
67904;SDS011;54709;43.614;1.576;2022-11-20T14:21:20;6.80;;;5.15;;
67904;SDS011;54709;43.614;1.576;2022-11-20T14:24:04;7.88;;;4.45;;
67904;SDS011;54709;43.614;1.576;2022-11-20T14:26:30;6.22;;;3.30;;
67904;SDS011;54709;43.614;1.576;2022-11-20T14:28:56;8.45;;;4.13;;
67904;SDS011;54709;43.614;1.576;2022-11-20T14:31:25;5.57;;;2.90;;
67904;SDS011;54709;43.614;1.576;2022-11-20T14:33:52;4.60;;;2.40;;
67904;SDS011;54709;43.614;1.576;2022-11-20T14:36:19;5.68;;;3.00;;
67904;SDS011;54709;43.614;1.576;2022-11-20T14:38:46;9.85;;;3.80;;
67904;SDS011;54709;43.614;1.576;2022-11-20T14:41:16;6.50;;;3.15;;
67904;SDS011;54709;43.614;1.576;2022-11-20T14:43:56;6.78;;;2.80;;
67904;SDS011;54709;43.614;1.576;2022-11-20T14:46:22;10.30;;;2.70;;
67904;SDS011;54709;43.614;1.576;2022-11-20T14:48:54;10.10;;;3.53;;
67904;SDS011;54709;43.614;1.576;2022-11-20T14:51:31;11.90;;;2.72;;
67904;SDS011;54709;43.614;1.576;2022-11-20T14:54:15;9.18;;;3.00;;
67904;SDS011;54709;43.614;1.576;2022-11-20T14:59:07;12.77;;;2.40;;
67904;SDS011;54709;43.614;1.576;2022-11-20T15:01:33;8.88;;;2.08;;
67904;SDS011;54709;43.614;1.576;2022-11-20T15:04:11;9.50;;;2.30;;
67904;SDS011;54709;43.614;1.576;2022-11-20T15:06:37;14.98;;;3.15;;
67904;SDS011;54709;43.614;1.576;2022-11-20T15:09:17;12.23;;;2.40;;
67904;SDS011;54709;43.614;1.576;2022-11-20T15:11:50;10.65;;;2.70;;
67904;SDS011;54709;43.614;1.576;2022-11-20T15:14:18;10.75;;;2.40;;
67904;SDS011;54709;43.614;1.576;2022-11-20T15:16:44;8.90;;;2.50;;
67904;SDS011;54709;43.614;1.576;2022-11-20T15:19:16;12.05;;;2.75;;
67904;SDS011;54709;43.614;1.576;2022-11-20T15:21:43;10.70;;;2.67;;
67904;SDS011;54709;43.614;1.576;2022-11-20T15:24:09;15.55;;;2.72;;
67904;SDS011;54709;43.614;1.576;2022-11-20T15:26:35;15.07;;;2.92;;
67904;SDS011;54709;43.614;1.576;2022-11-20T15:29:01;15.77;;;2.67;;
67904;SDS011;54709;43.614;1.576;2022-11-20T15:31:27;18.75;;;2.90;;
67904;SDS011;54709;43.614;1.576;2022-11-20T15:33:53;15.70;;;3.05;;
67904;SDS011;54709;43.614;1.576;2022-11-20T15:36:18;18.00;;;2.85;;
67904;SDS011;54709;43.614;1.576;2022-11-20T15:38:43;17.17;;;3.35;;
67904;SDS011;54709;43.614;1.576;2022-11-20T15:41:09;18.52;;;3.00;;
67904;SDS011;54709;43.614;1.576;2022-11-20T15:43:35;14.63;;;3.28;;
67904;SDS011;54709;43.614;1.576;2022-11-20T15:46:09;16.33;;;2.67;;
67904;SDS011;54709;43.614;1.576;2022-11-20T15:48:39;22.77;;;3.17;;
67904;SDS011;54709;43.614;1.576;2022-11-20T15:53:35;19.98;;;2.92;;
67904;SDS011;54709;43.614;1.576;2022-11-20T15:56:02;19.55;;;3.25;;
67904;SDS011;54709;43.614;1.576;2022-11-20T15:58:28;19.65;;;3.17;;
67904;SDS011;54709;43.614;1.576;2022-11-20T16:00:53;16.83;;;3.00;;
67904;SDS011;54709;43.614;1.576;2022-11-20T16:03:19;20.10;;;3.15;;
67904;SDS011;54709;43.614;1.576;2022-11-20T16:05:44;21.00;;;3.70;;
67904;SDS011;54709;43.614;1.576;2022-11-20T16:08:10;17.70;;;3.25;;
67904;SDS011;54709;43.614;1.576;2022-11-20T16:10:36;22.60;;;3.28;;
67904;SDS011;54709;43.614;1.576;2022-11-20T16:13:02;20.33;;;4.10;;
67904;SDS011;54709;43.614;1.576;2022-11-20T16:15:51;23.88;;;3.70;;
67904;SDS011;54709;43.614;1.576;2022-11-20T16:18:19;24.00;;;4.30;;
67904;SDS011;54709;43.614;1.576;2022-11-20T16:20:46;29.08;;;5.00;;
67904;SDS011;54709;43.614;1.576;2022-11-20T16:23:13;18.23;;;3.70;;
67904;SDS011;54709;43.614;1.576;2022-11-20T16:25:38;16.88;;;4.20;;
67904;SDS011;54709;43.614;1.576;2022-11-20T16:28:04;17.63;;;3.50;;
67904;SDS011;54709;43.614;1.576;2022-11-20T16:30:30;24.52;;;4.50;;
67904;SDS011;54709;43.614;1.576;2022-11-20T16:32:57;19.33;;;3.90;;
67904;SDS011;54709;43.614;1.576;2022-11-20T16:35:22;22.92;;;3.72;;
67904;SDS011;54709;43.614;1.576;2022-11-20T16:37:48;24.13;;;4.22;;
67904;SDS011;54709;43.614;1.576;2022-11-20T16:40:13;23.17;;;4.30;;
67904;SDS011;54709;43.614;1.576;2022-11-20T16:42:38;22.70;;;3.80;;
67904;SDS011;54709;43.614;1.576;2022-11-20T16:45:04;23.50;;;4.57;;
67904;SDS011;54709;43.614;1.576;2022-11-20T16:47:33;22.50;;;5.10;;
67904;SDS011;54709;43.614;1.576;2022-11-20T16:49:59;21.45;;;5.72;;
67904;SDS011;54709;43.614;1.576;2022-11-20T16:52:26;14.95;;;4.45;;
67904;SDS011;54709;43.614;1.576;2022-11-20T16:54:52;14.60;;;4.60;;
67904;SDS011;54709;43.614;1.576;2022-11-20T16:57:17;28.55;;;5.80;;